Time;durP1;ratioP1;P1;durP2;ratioP2;P2;SDS_P1;SDS_P2;PMS_P1;PMS_P2;Temp;Humidity;BMP_temperature;BMP_pressure;BME280_temperature;BME280_humidity;BME280_pressure;Samples;Min_cycle;Max_cycle;Signal;HPM_P1;HPM_P2
2023/12/08 00:01:56;;;;;;;;;;;1.10;84.20;;;;;;5089748;23;19948;-84
2023/12/08 00:04:16;;;;;;;;;;;1.10;84.50;;;;;;5087621;23;19904;-83
2023/12/08 00:06:39;;;;;;;;;;;1.10;84.50;;;;;;5086680;23;19909;-83
2023/12/08 00:09:01;;;;;;;;;;;1.10;84.50;;;;;;5087917;23;19930;-84
2023/12/08 00:11:21;;;;;;;;;;;1.10;84.50;;;;;;5087169;23;19908;-83
2023/12/08 00:13:42;;;;;;;;;;;1.10;84.40;;;;;;5089134;23;20371;-83
2023/12/08 00:16:06;;;;;;;;;;;1.10;84.50;;;;;;5087549;23;20371;-83
2023/12/08 00:18:26;;;;;;;;;;;1.10;84.50;;;;;;5107403;23;19911;-84
2023/12/08 00:20:47;;;;;;;;;;;1.10;84.40;;;;;;5105781;23;20375;-83
2023/12/08 00:23:08;;;;;;;;;;;1.10;84.40;;;;;;5088868;23;20535;-83
2023/12/08 00:25:28;;;;;;;;;;;1.00;84.30;;;;;;5088957;23;20044;-84
2023/12/08 00:27:49;;;;;;;;;;;1.00;84.40;;;;;;5087790;23;19915;-84
2023/12/08 00:30:11;;;;;;;;;;;1.00;84.20;;;;;;5108489;23;19915;-82
2023/12/08 00:32:32;;;;;;;;;;;1.00;84.20;;;;;;5086225;23;19916;-84
2023/12/08 00:34:53;;;;;;;;;;;1.00;84.30;;;;;;5088686;23;20429;-83
2023/12/08 00:37:14;;;;;;;;;;;1.00;84.30;;;;;;5087308;23;19909;-84
2023/12/08 00:39:34;;;;;;;;;;;1.00;84.30;;;;;;5088092;23;19955;-83
2023/12/08 00:41:55;;;;;;;;;;;1.00;84.40;;;;;;5087137;23;19947;-84
2023/12/08 00:44:16;;;;;;;;;;;1.00;84.50;;;;;;5109034;23;19918;-83
2023/12/08 00:46:36;;;;;;;;;;;0.90;84.30;;;;;;5088125;23;20249;-83
2023/12/08 00:48:57;;;;;;;;;;;1.00;84.40;;;;;;5090328;23;19964;-83
2023/12/08 00:51:17;;;;;;;;;;;1.00;85.20;;;;;;5090109;23;19912;-83
2023/12/08 00:53:38;;;;;;;;;;;1.00;84.40;;;;;;5090580;23;20368;-84
2023/12/08 00:55:59;;;;;;;;;;;1.00;84.40;;;;;;5086516;23;19908;-83
2023/12/08 00:58:19;;;;;;;;;;;0.90;84.40;;;;;;5089842;23;19928;-83
2023/12/08 01:00:40;;;;;;;;;;;0.90;84.40;;;;;;5088507;23;19943;-83
2023/12/08 01:02:59;;;;;;;;;;;0.90;84.40;;;;;;5109928;23;20032;-84
2023/12/08 01:05:18;;;;;;;;;;;0.90;85.10;;;;;;5088121;23;20657;-83
2023/12/08 01:07:37;;;;;;;;;;;0.90;84.40;;;;;;5107292;23;20472;-83
2023/12/08 01:09:57;;;;;;;;;;;0.90;84.40;;;;;;5087920;23;19912;-83
2023/12/08 01:12:16;;;;;;;;;;;0.80;84.30;;;;;;5104258;23;19935;-83
2023/12/08 01:14:35;;;;;;;;;;;0.80;84.30;;;;;;5087281;23;19907;-84
2023/12/08 01:16:55;;;;;;;;;;;0.80;84.20;;;;;;5086463;23;20473;-83
2023/12/08 01:19:14;;;;;;;;;;;0.80;85.00;;;;;;5087318;23;19919;-82
2023/12/08 01:21:37;;;;;;;;;;;0.70;84.20;;;;;;5084929;23;19914;-84
2023/12/08 01:23:56;;;;;;;;;;;0.80;84.30;;;;;;5090162;23;20249;-83
2023/12/08 01:26:15;;;;;;;;;;;0.70;84.30;;;;;;5088057;23;19920;-84
2023/12/08 01:28:34;;;;;;;;;;;0.70;85.00;;;;;;5088885;23;19916;-82
2023/12/08 01:30:53;;;;;;;;;;;0.70;85.10;;;;;;5109021;23;19935;-84
2023/12/08 01:33:13;;;;;;;;;;;0.70;85.20;;;;;;5109641;23;19915;-84
2023/12/08 01:35:32;;;;;;;;;;;0.70;84.50;;;;;;5110620;23;19969;-84
2023/12/08 01:37:51;;;;;;;;;;;0.70;84.60;;;;;;5088252;23;19967;-83
2023/12/08 01:40:11;;;;;;;;;;;0.70;84.60;;;;;;5089252;23;19915;-84
2023/12/08 01:42:30;;;;;;;;;;;0.70;84.50;;;;;;5089021;23;19969;-83
2023/12/08 01:44:50;;;;;;;;;;;0.70;84.60;;;;;;5092006;23;19919;-83
2023/12/08 01:47:10;;;;;;;;;;;0.70;85.30;;;;;;5090796;23;19976;-84
2023/12/08 01:49:29;;;;;;;;;;;0.70;84.60;;;;;;5089016;23;20299;-83
2023/12/08 01:51:49;;;;;;;;;;;0.70;84.60;;;;;;5111918;23;20014;-83
2023/12/08 01:54:07;;;;;;;;;;;0.70;84.70;;;;;;5108938;23;19957;-84
2023/12/08 01:56:27;;;;;;;;;;;0.70;84.40;;;;;;5088020;23;19972;-84
2023/12/08 01:58:46;;;;;;;;;;;0.80;84.70;;;;;;5106795;23;19939;-82
2023/12/08 02:01:07;;;;;;;;;;;0.70;85.40;;;;;;5089173;23;20038;-83
2023/12/08 02:03:27;;;;;;;;;;;0.70;84.60;;;;;;5088135;23;19948;-83
2023/12/08 02:05:47;;;;;;;;;;;0.70;84.80;;;;;;5088797;23;20527;-84
2023/12/08 02:08:06;;;;;;;;;;;0.70;84.80;;;;;;5091410;23;19915;-85
2023/12/08 02:10:25;;;;;;;;;;;0.70;84.80;;;;;;5090777;23;19958;-83
2023/12/08 02:12:45;;;;;;;;;;;0.70;84.80;;;;;;5089367;23;19916;-84
2023/12/08 02:15:05;;;;;;;;;;;0.70;84.80;;;;;;5088203;23;19915;-83
2023/12/08 02:17:34;;;;;;;;;;;0.70;84.80;;;;;;5108729;23;19950;-84
2023/12/08 02:19:54;;;;;;;;;;;0.70;84.60;;;;;;5111714;23;19975;-84
2023/12/08 02:22:15;;;;;;;;;;;0.70;84.80;;;;;;5111941;23;19911;-83
2023/12/08 02:24:34;;;;;;;;;;;0.70;84.80;;;;;;5087341;23;19919;-82
2023/12/08 02:26:53;;;;;;;;;;;0.70;84.80;;;;;;5086778;23;19980;-81
2023/12/08 02:29:13;;;;;;;;;;;0.70;84.80;;;;;;5106125;23;20356;-82
2023/12/08 02:31:37;;;;;;;;;;;0.70;84.80;;;;;;5088263;23;19919;-82
2023/12/08 02:36:35;;;;;;;;;;;0.70;84.70;;;;;;5090180;23;19935;-84
2023/12/08 02:38:54;;;;;;;;;;;0.70;84.60;;;;;;5085892;23;19932;-84
2023/12/08 02:41:13;;;;;;;;;;;0.60;84.50;;;;;;5086662;23;19956;-83
2023/12/08 02:43:32;;;;;;;;;;;0.60;84.40;;;;;;5104978;23;19946;-82
2023/12/08 02:45:51;;;;;;;;;;;0.60;84.30;;;;;;5107670;23;19911;-85
2023/12/08 02:48:11;;;;;;;;;;;0.60;84.30;;;;;;5107186;23;19912;-83
2023/12/08 02:50:30;;;;;;;;;;;0.60;84.40;;;;;;5108952;23;20466;-84
2023/12/08 02:52:49;;;;;;;;;;;0.60;84.50;;;;;;5086884;23;19924;-83
2023/12/08 02:55:22;;;;;;;;;;;0.60;84.50;;;;;;5085978;23;20014;-83
2023/12/08 02:57:41;;;;;;;;;;;0.50;84.60;;;;;;5086658;23;19919;-84
2023/12/08 03:00:00;;;;;;;;;;;0.50;85.20;;;;;;5104704;23;19911;-84
2023/12/08 03:02:19;;;;;;;;;;;0.50;84.60;;;;;;5086871;23;19971;-84
2023/12/08 03:04:38;;;;;;;;;;;0.50;84.60;;;;;;5087117;23;19919;-83
2023/12/08 03:06:58;;;;;;;;;;;0.50;84.70;;;;;;5105488;23;19919;-83
2023/12/08 03:14:36;;;;;;;;;;;0.50;84.70;;;;;;5090982;23;19911;-82
2023/12/08 03:16:55;;;;;;;;;;;0.50;84.60;;;;;;5088991;23;19915;-83
2023/12/08 03:19:15;;;;;;;;;;;0.50;84.80;;;;;;5088380;23;19936;-82
2023/12/08 03:21:34;;;;;;;;;;;0.50;85.30;;;;;;5110481;23;20402;-83
2023/12/08 03:23:53;;;;;;;;;;;0.50;84.70;;;;;;5107198;23;19915;-84
2023/12/08 03:26:12;;;;;;;;;;;0.40;85.40;;;;;;5109893;23;20034;-84
2023/12/08 03:28:32;;;;;;;;;;;0.50;85.00;;;;;;5108712;23;19983;-84
2023/12/08 03:30:51;;;;;;;;;;;0.50;85.60;;;;;;5084972;23;19916;-84
2023/12/08 03:33:10;;;;;;;;;;;0.50;85.00;;;;;;5086990;23;19916;-84
2023/12/08 03:35:29;;;;;;;;;;;0.50;85.10;;;;;;5109069;23;20410;-82
2023/12/08 03:37:49;;;;;;;;;;;0.50;85.20;;;;;;5089413;23;20470;-83
2023/12/08 03:40:08;;;;;;;;;;;0.50;85.20;;;;;;5091205;23;19963;-84
2023/12/08 03:42:28;;;;;;;;;;;0.50;85.20;;;;;;5088336;23;19958;-85
2023/12/08 03:44:47;;;;;;;;;;;0.60;85.30;;;;;;5109357;23;19983;-83
2023/12/08 03:47:06;;;;;;;;;;;0.60;85.30;;;;;;5109049;23;19920;-83
2023/12/08 03:49:25;;;;;;;;;;;0.60;85.40;;;;;;5089049;23;20364;-84
2023/12/08 03:51:44;;;;;;;;;;;0.60;85.40;;;;;;5105820;23;19919;-84
2023/12/08 03:54:04;;;;;;;;;;;0.60;85.20;;;;;;5106167;23;19911;-83
2023/12/08 03:56:23;;;;;;;;;;;0.60;85.20;;;;;;5086528;23;20355;-83
2023/12/08 03:58:42;;;;;;;;;;;0.60;85.40;;;;;;5105913;23;19994;-84
2023/12/08 04:03:45;;;;;;;;;;;0.60;85.30;;;;;;5089212;23;20245;-85
2023/12/08 04:06:04;;;;;;;;;;;0.70;85.50;;;;;;5082506;23;19915;-83
2023/12/08 04:08:23;;;;;;;;;;;0.70;86.10;;;;;;5104923;23;19940;-85
2023/12/08 04:10:43;;;;;;;;;;;0.70;85.40;;;;;;5089417;23;19931;-84
2023/12/08 04:13:03;;;;;;;;;;;0.70;85.40;;;;;;5085571;23;19915;-84
2023/12/08 04:15:24;;;;;;;;;;;0.70;85.40;;;;;;5087724;23;20265;-83
2023/12/08 04:17:44;;;;;;;;;;;0.80;85.50;;;;;;5088838;23;20491;-84
2023/12/08 04:20:03;;;;;;;;;;;0.80;85.40;;;;;;5087996;23;19955;-85
2023/12/08 04:22:22;;;;;;;;;;;0.80;85.40;;;;;;5088578;23;19916;-84
2023/12/08 04:24:41;;;;;;;;;;;0.80;86.20;;;;;;5085794;23;19962;-83
2023/12/08 04:27:01;;;;;;;;;;;0.80;85.40;;;;;;5089574;23;19927;-84
2023/12/08 04:29:20;;;;;;;;;;;0.80;85.40;;;;;;5087923;23;19911;-84
2023/12/08 04:31:39;;;;;;;;;;;0.80;85.40;;;;;;5085597;23;20614;-83
2023/12/08 04:33:58;;;;;;;;;;;0.80;85.30;;;;;;5086184;23;19912;-83
2023/12/08 04:36:17;;;;;;;;;;;0.80;85.40;;;;;;5086092;23;20111;-83
2023/12/08 04:38:37;;;;;;;;;;;0.80;85.40;;;;;;5088761;23;19912;-84
2023/12/08 04:40:56;;;;;;;;;;;0.80;85.30;;;;;;5088079;23;19977;-83
2023/12/08 04:43:15;;;;;;;;;;;0.80;85.20;;;;;;5085315;23;19944;-84
2023/12/08 04:45:35;;;;;;;;;;;0.80;85.20;;;;;;5087003;23;19971;-84
2023/12/08 04:47:54;;;;;;;;;;;0.80;85.30;;;;;;5108338;23;19999;-82
2023/12/08 04:50:13;;;;;;;;;;;0.80;85.30;;;;;;5083622;23;19908;-84
2023/12/08 04:52:32;;;;;;;;;;;0.80;85.30;;;;;;5086385;23;19975;-84
2023/12/08 04:54:52;;;;;;;;;;;0.80;85.40;;;;;;5084763;23;20051;-83
2023/12/08 04:57:11;;;;;;;;;;;0.80;85.40;;;;;;5107321;23;19911;-83
2023/12/08 04:59:30;;;;;;;;;;;0.90;85.40;;;;;;5087394;23;20521;-85
2023/12/08 05:01:50;;;;;;;;;;;0.90;85.40;;;;;;5105776;23;19911;-84
2023/12/08 05:04:10;;;;;;;;;;;0.90;85.40;;;;;;5086838;23;19986;-84
2023/12/08 05:06:29;;;;;;;;;;;0.90;86.20;;;;;;5107167;23;20481;-84
2023/12/08 05:08:48;;;;;;;;;;;0.90;85.40;;;;;;5084603;23;19995;-84
2023/12/08 05:11:08;;;;;;;;;;;0.90;85.30;;;;;;5107850;23;19927;-83
2023/12/08 05:13:27;;;;;;;;;;;0.90;86.10;;;;;;5084583;23;19959;-84
2023/12/08 05:15:46;;;;;;;;;;;0.90;85.50;;;;;;5085399;23;19935;-82
2023/12/08 05:18:05;;;;;;;;;;;0.90;85.40;;;;;;5087775;23;20097;-84
2023/12/08 05:20:25;;;;;;;;;;;0.90;86.00;;;;;;5084972;23;19911;-84
2023/12/08 05:22:44;;;;;;;;;;;0.90;85.50;;;;;;5086913;23;19932;-83
2023/12/08 05:25:03;;;;;;;;;;;0.90;85.50;;;;;;5085737;23;19923;-84
2023/12/08 05:27:22;;;;;;;;;;;0.90;85.30;;;;;;5085392;23;19911;-84
2023/12/08 05:29:42;;;;;;;;;;;0.90;85.30;;;;;;5104415;23;19943;-86
2023/12/08 05:32:01;;;;;;;;;;;0.90;85.50;;;;;;5087363;23;20027;-84
2023/12/08 05:34:20;;;;;;;;;;;1.00;85.60;;;;;;5089067;23;19947;-86
2023/12/08 05:36:39;;;;;;;;;;;0.90;86.20;;;;;;5088001;23;19984;-83
2023/12/08 05:38:59;;;;;;;;;;;1.00;85.60;;;;;;5112691;23;20409;-83
2023/12/08 05:41:18;;;;;;;;;;;1.00;85.40;;;;;;5091893;23;19932;-83
2023/12/08 05:43:37;;;;;;;;;;;1.00;85.40;;;;;;5092844;23;19979;-84
2023/12/08 05:45:57;;;;;;;;;;;1.00;85.30;;;;;;5092487;23;19914;-85
2023/12/08 05:48:16;;;;;;;;;;;0.90;85.20;;;;;;5112630;23;19939;-83
2023/12/08 05:50:35;;;;;;;;;;;1.00;85.40;;;;;;5089493;23;19959;-84
2023/12/08 05:52:54;;;;;;;;;;;0.90;85.10;;;;;;5093135;23;19950;-85
2023/12/08 05:55:13;;;;;;;;;;;0.80;85.30;;;;;;5088048;23;19911;-84
2023/12/08 05:57:32;;;;;;;;;;;0.80;85.70;;;;;;5091309;23;19973;-83
2023/12/08 05:59:52;;;;;;;;;;;0.80;85.80;;;;;;5112576;23;19947;-84
2023/12/08 06:02:11;;;;;;;;;;;0.90;85.80;;;;;;5112958;23;19954;-84
2023/12/08 06:04:31;;;;;;;;;;;0.80;86.00;;;;;;5092646;23;19928;-85
2023/12/08 06:06:50;;;;;;;;;;;0.90;86.00;;;;;;5112125;23;19971;-83
2023/12/08 06:09:10;;;;;;;;;;;0.90;86.10;;;;;;5092608;23;19991;-83
2023/12/08 06:11:29;;;;;;;;;;;0.90;86.00;;;;;;5091749;23;20000;-83
2023/12/08 06:13:48;;;;;;;;;;;1.00;86.40;;;;;;5093227;23;19959;-84
2023/12/08 06:16:07;;;;;;;;;;;1.00;86.20;;;;;;5092174;23;19915;-84
2023/12/08 06:18:46;;;;;;;;;;;1.00;86.10;;;;;;5115122;23;19910;-83
2023/12/08 06:21:05;;;;;;;;;;;1.00;86.10;;;;;;5112372;23;19915;-84
2023/12/08 06:23:24;;;;;;;;;;;1.00;86.10;;;;;;5093631;23;19916;-83
2023/12/08 06:25:43;;;;;;;;;;;1.10;86.30;;;;;;5092362;23;20233;-85
2023/12/08 06:28:03;;;;;;;;;;;1.00;86.30;;;;;;5093473;23;19984;-84
2023/12/08 06:30:24;;;;;;;;;;;1.00;87.00;;;;;;5093793;23;19915;-84
2023/12/08 06:32:42;;;;;;;;;;;1.10;86.30;;;;;;5091938;23;19955;-84
2023/12/08 06:35:02;;;;;;;;;;;1.10;86.20;;;;;;5094018;23;19911;-85
2023/12/08 06:37:21;;;;;;;;;;;1.10;86.20;;;;;;5092119;23;19915;-83
2023/12/08 06:39:40;;;;;;;;;;;1.20;86.20;;;;;;5092594;23;19928;-84
2023/12/08 06:41:59;;;;;;;;;;;1.20;86.00;;;;;;5092196;23;19912;-84
2023/12/08 06:44:19;;;;;;;;;;;1.20;86.00;;;;;;5113096;23;20439;-84
2023/12/08 06:46:38;;;;;;;;;;;1.20;86.00;;;;;;5092366;23;19955;-84
2023/12/08 06:48:57;;;;;;;;;;;1.20;85.80;;;;;;5112307;23;20142;-84
2023/12/08 06:51:16;;;;;;;;;;;1.20;86.40;;;;;;5094446;23;19939;-84
2023/12/08 06:53:36;;;;;;;;;;;1.20;85.90;;;;;;5093670;23;19932;-84
2023/12/08 06:55:55;;;;;;;;;;;1.20;85.60;;;;;;5112895;23;19971;-85
2023/12/08 06:58:14;;;;;;;;;;;1.20;85.70;;;;;;5092443;23;19916;-85
2023/12/08 07:00:33;;;;;;;;;;;1.20;85.80;;;;;;5093201;23;19911;-84
2023/12/08 07:02:53;;;;;;;;;;;1.20;85.80;;;;;;5114155;23;19914;-84
2023/12/08 07:05:12;;;;;;;;;;;1.30;85.80;;;;;;5093829;23;20253;-84
2023/12/08 07:07:31;;;;;;;;;;;1.20;85.80;;;;;;5094687;23;19911;-83
2023/12/08 07:09:50;;;;;;;;;;;1.20;85.80;;;;;;5093725;23;19934;-83
2023/12/08 07:12:10;;;;;;;;;;;1.20;85.70;;;;;;5094649;23;20099;-82
2023/12/08 07:14:29;;;;;;;;;;;1.30;86.00;;;;;;5092139;23;19928;-84
2023/12/08 07:16:43;;;;;;;;;;;1.30;85.80;;;;;;5095394;23;20019;-85
2023/12/08 07:19:02;;;;;;;;;;;1.20;85.50;;;;;;5093963;23;20479;-82
2023/12/08 07:21:21;;;;;;;;;;;1.10;86.00;;;;;;5115439;23;20399;-83
2023/12/08 07:23:42;;;;;;;;;;;1.20;86.00;;;;;;5093923;23;20368;-83
2023/12/08 07:26:02;;;;;;;;;;;1.20;85.90;;;;;;5095313;23;19924;-85
2023/12/08 07:28:21;;;;;;;;;;;1.30;85.90;;;;;;5095186;23;19984;-84
2023/12/08 07:30:40;;;;;;;;;;;1.30;85.80;;;;;;5115463;23;20050;-84
2023/12/08 07:32:59;;;;;;;;;;;1.30;85.80;;;;;;5094188;23;20059;-85
2023/12/08 07:35:19;;;;;;;;;;;1.30;85.70;;;;;;5094622;23;19992;-83
2023/12/08 07:37:40;;;;;;;;;;;1.30;85.70;;;;;;5094119;23;20455;-83
2023/12/08 07:39:59;;;;;;;;;;;1.30;85.80;;;;;;5094655;23;20679;-82
2023/12/08 07:42:18;;;;;;;;;;;1.40;86.50;;;;;;5094714;23;20287;-82
2023/12/08 07:44:37;;;;;;;;;;;1.40;86.50;;;;;;5093301;23;19912;-83
2023/12/08 07:46:57;;;;;;;;;;;1.40;85.70;;;;;;5113492;23;19911;-83
2023/12/08 07:49:16;;;;;;;;;;;1.40;85.70;;;;;;5095465;23;19912;-83
2023/12/08 07:51:36;;;;;;;;;;;1.40;85.70;;;;;;5094179;23;20261;-83
2023/12/08 07:53:55;;;;;;;;;;;1.40;85.70;;;;;;5095678;23;19915;-84
2023/12/08 07:56:14;;;;;;;;;;;1.50;85.60;;;;;;5092652;23;19911;-83
2023/12/08 07:58:34;;;;;;;;;;;1.50;86.40;;;;;;5116406;23;19936;-83
2023/12/08 08:00:53;;;;;;;;;;;1.50;85.50;;;;;;5115890;23;19912;-82
2023/12/08 08:03:12;;;;;;;;;;;1.50;85.50;;;;;;5094752;23;19987;-83
2023/12/08 08:05:32;;;;;;;;;;;1.50;85.60;;;;;;5095967;23;19955;-82
2023/12/08 08:07:51;;;;;;;;;;;1.50;85.50;;;;;;5095299;23;20423;-84
2023/12/08 08:10:10;;;;;;;;;;;1.50;86.20;;;;;;5095815;23;19911;-83
2023/12/08 08:12:32;;;;;;;;;;;1.50;85.40;;;;;;5111689;23;19943;-83
2023/12/08 08:14:51;;;;;;;;;;;1.50;85.50;;;;;;5095118;23;19920;-85
2023/12/08 08:17:10;;;;;;;;;;;1.60;85.40;;;;;;5092540;23;19959;-83
2023/12/08 08:19:29;;;;;;;;;;;1.50;85.40;;;;;;5113423;23;19959;-84
2023/12/08 08:21:48;;;;;;;;;;;1.50;85.40;;;;;;5113928;23;19971;-84
2023/12/08 08:24:08;;;;;;;;;;;1.60;85.40;;;;;;5113248;23;19952;-81
2023/12/08 08:26:27;;;;;;;;;;;1.60;85.40;;;;;;5114199;23;20039;-83
2023/12/08 08:28:46;;;;;;;;;;;1.60;85.40;;;;;;5113280;23;19976;-83
2023/12/08 08:31:07;;;;;;;;;;;1.60;85.40;;;;;;5114797;23;19971;-82
2023/12/08 08:33:26;;;;;;;;;;;1.70;85.50;;;;;;5112157;23;19918;-82
2023/12/08 08:35:47;;;;;;;;;;;1.60;85.30;;;;;;5113668;23;20122;-83
2023/12/08 08:38:07;;;;;;;;;;;1.60;85.30;;;;;;5112611;23;20031;-83
2023/12/08 08:40:26;;;;;;;;;;;1.60;85.30;;;;;;5094653;23;19951;-83
2023/12/08 08:42:45;;;;;;;;;;;1.60;85.30;;;;;;5091918;23;19988;-83
2023/12/08 08:45:05;;;;;;;;;;;1.70;85.30;;;;;;5095426;23;19915;-83
2023/12/08 08:47:25;;;;;;;;;;;1.70;86.00;;;;;;5094033;23;19927;-81
2023/12/08 08:49:44;;;;;;;;;;;1.70;85.30;;;;;;5094312;23;20573;-83
2023/12/08 08:52:03;;;;;;;;;;;1.80;85.30;;;;;;5113732;23;19943;-82
2023/12/08 08:54:22;;;;;;;;;;;1.70;85.30;;;;;;5092619;23;19959;-83
2023/12/08 08:56:42;;;;;;;;;;;1.70;85.20;;;;;;5092202;23;19911;-83
2023/12/08 08:59:03;;;;;;;;;;;1.70;85.90;;;;;;5093816;23;19911;-83
2023/12/08 09:01:23;;;;;;;;;;;1.70;85.10;;;;;;5090783;23;19915;-83
2023/12/08 09:03:43;;;;;;;;;;;1.70;85.80;;;;;;5113390;23;19915;-83
2023/12/08 09:06:02;;;;;;;;;;;1.70;85.10;;;;;;5095299;23;20020;-83
2023/12/08 09:08:21;;;;;;;;;;;1.70;85.10;;;;;;5093790;23;20479;-83
2023/12/08 09:10:45;;;;;;;;;;;1.80;85.10;;;;;;5094198;23;20184;-82
2023/12/08 09:13:04;;;;;;;;;;;1.80;85.00;;;;;;5093721;23;19967;-83
2023/12/08 09:15:24;;;;;;;;;;;1.80;85.10;;;;;;5113762;23;20082;-83
2023/12/08 09:17:43;;;;;;;;;;;1.80;85.00;;;;;;5094195;23;19915;-83
2023/12/08 09:20:04;;;;;;;;;;;1.80;85.00;;;;;;5092797;23;19935;-82
2023/12/08 09:22:24;;;;;;;;;;;1.70;84.80;;;;;;5115524;23;19980;-82
2023/12/08 09:24:43;;;;;;;;;;;1.80;84.90;;;;;;5091826;23;20055;-83
2023/12/08 09:27:03;;;;;;;;;;;1.80;85.00;;;;;;5093258;23;20036;-81
2023/12/08 09:29:22;;;;;;;;;;;1.80;85.60;;;;;;5112195;23;19915;-82
2023/12/08 09:31:41;;;;;;;;;;;1.80;84.90;;;;;;5095303;23;19915;-83
2023/12/08 09:34:00;;;;;;;;;;;1.80;84.90;;;;;;5092956;23;19914;-81
2023/12/08 09:36:19;;;;;;;;;;;1.80;84.80;;;;;;5095028;23;19915;-82
2023/12/08 09:38:38;;;;;;;;;;;1.80;84.90;;;;;;5113284;23;19991;-81
2023/12/08 09:40:58;;;;;;;;;;;1.80;84.80;;;;;;5096145;23;19912;-82
2023/12/08 09:43:20;;;;;;;;;;;1.80;84.70;;;;;;5092302;23;19935;-82
2023/12/08 09:45:40;;;;;;;;;;;1.80;84.60;;;;;;5094780;23;20158;-82
2023/12/08 09:48:00;;;;;;;;;;;1.80;84.80;;;;;;5113601;23;20627;-83
2023/12/08 09:50:19;;;;;;;;;;;1.80;84.70;;;;;;5095278;23;19919;-83
2023/12/08 09:52:39;;;;;;;;;;;1.80;84.70;;;;;;5094187;23;20245;-83
2023/12/08 09:54:58;;;;;;;;;;;1.90;84.70;;;;;;5095038;23;20536;-83
2023/12/08 09:57:19;;;;;;;;;;;2.00;84.80;;;;;;5094279;23;19965;-83
2023/12/08 09:59:39;;;;;;;;;;;1.90;84.70;;;;;;5112966;23;20011;-83
2023/12/08 10:01:59;;;;;;;;;;;1.90;84.70;;;;;;5093078;23;19985;-84
2023/12/08 10:04:18;;;;;;;;;;;1.90;84.70;;;;;;5095475;23;20349;-83
2023/12/08 10:06:38;;;;;;;;;;;1.90;84.70;;;;;;5114292;23;19911;-83
2023/12/08 10:08:58;;;;;;;;;;;1.90;84.60;;;;;;5113420;23;19955;-82
2023/12/08 10:11:17;;;;;;;;;;;1.90;84.60;;;;;;5093968;23;19911;-83
2023/12/08 10:13:37;;;;;;;;;;;1.90;84.40;;;;;;5092693;23;19947;-83
2023/12/08 10:15:56;;;;;;;;;;;1.90;85.20;;;;;;5093735;23;20024;-83
2023/12/08 10:18:25;;;;;;;;;;;1.90;84.40;;;;;;5094161;23;20433;-83
2023/12/08 10:20:44;;;;;;;;;;;1.90;84.40;;;;;;5115225;23;19911;-83
2023/12/08 10:23:03;;;;;;;;;;;1.90;84.30;;;;;;5093038;23;19960;-82
2023/12/08 10:25:23;;;;;;;;;;;2.00;84.50;;;;;;5093488;23;19923;-83
2023/12/08 10:27:47;;;;;;;;;;;2.00;84.40;;;;;;5093531;23;19911;-83
2023/12/08 10:30:06;;;;;;;;;;;2.00;85.20;;;;;;5094231;23;19911;-83
2023/12/08 10:32:25;;;;;;;;;;;2.00;84.40;;;;;;5093779;23;19915;-83
2023/12/08 10:34:44;;;;;;;;;;;2.00;84.40;;;;;;5088959;23;20391;-83
2023/12/08 10:37:04;;;;;;;;;;;2.00;85.10;;;;;;5112053;23;19915;-83
2023/12/08 10:39:26;;;;;;;;;;;2.10;84.40;;;;;;5094989;23;20352;-83
2023/12/08 10:41:49;;;;;;;;;;;2.10;84.40;;;;;;5093820;23;19966;-81
2023/12/08 10:44:08;;;;;;;;;;;2.10;85.10;;;;;;5112361;23;19994;-83
2023/12/08 10:46:28;;;;;;;;;;;2.10;84.40;;;;;;5093639;23;19911;-82
2023/12/08 10:48:48;;;;;;;;;;;2.10;84.70;;;;;;5092268;23;19959;-83
2023/12/08 10:51:13;;;;;;;;;;;2.10;84.20;;;;;;5090729;23;19916;-84
2023/12/08 10:53:32;;;;;;;;;;;2.10;84.90;;;;;;5113250;23;19923;-83
2023/12/08 10:55:52;;;;;;;;;;;2.10;84.20;;;;;;5091881;23;19995;-83
2023/12/08 10:58:14;;;;;;;;;;;2.10;84.10;;;;;;5093314;23;20361;-83
2023/12/08 11:00:34;;;;;;;;;;;2.10;84.70;;;;;;5090592;23;19911;-83
2023/12/08 11:02:54;;;;;;;;;;;2.00;83.30;;;;;;5090472;23;20360;-83
2023/12/08 11:05:17;;;;;;;;;;;2.00;83.80;;;;;;5112327;23;19911;-83
2023/12/08 11:07:38;;;;;;;;;;;2.00;83.80;;;;;;5092812;23;19931;-83
2023/12/08 11:09:59;;;;;;;;;;;2.10;83.90;;;;;;5093595;23;19992;-84
2023/12/08 11:12:19;;;;;;;;;;;2.10;83.90;;;;;;5094838;23;19923;-83
2023/12/08 11:14:42;;;;;;;;;;;2.10;84.70;;;;;;5093402;23;19924;-83
2023/12/08 11:17:04;;;;;;;;;;;2.10;84.50;;;;;;5113151;23;19947;-84
2023/12/08 11:19:24;;;;;;;;;;;2.10;84.00;;;;;;5092838;23;19916;-84
2023/12/08 11:21:43;;;;;;;;;;;2.10;83.90;;;;;;5092162;23;20006;-83
2023/12/08 11:24:05;;;;;;;;;;;2.10;83.90;;;;;;5094216;23;19977;-84
2023/12/08 11:26:43;;;;;;;;;;;2.10;83.90;;;;;;5047720;23;19920;-82
2023/12/08 11:29:06;;;;;;;;;;;2.10;83.80;;;;;;5047056;23;19964;-84
2023/12/08 11:31:54;;;;;;;;;;;2.20;84.60;;;;;;5067178;23;19999;-83
2023/12/08 11:34:24;;;;;;;;;;;2.20;83.80;;;;;;5066093;23;19911;-83
2023/12/08 11:36:47;;;;;;;;;;;2.20;83.70;;;;;;5068709;23;19925;-83
2023/12/08 11:39:25;;;;;;;;;;;2.20;83.70;;;;;;5070092;23;19912;-83
2023/12/08 11:41:46;;;;;;;;;;;2.20;83.70;;;;;;5068655;23;19933;-84
2023/12/08 11:44:07;;;;;;;;;;;2.20;84.30;;;;;;5067551;23;19972;-83
2023/12/08 11:46:27;;;;;;;;;;;2.20;83.50;;;;;;5067750;23;19912;-82
2023/12/08 11:48:48;;;;;;;;;;;2.20;83.40;;;;;;5068641;23;19912;-83
2023/12/08 11:51:08;;;;;;;;;;;2.20;83.40;;;;;;5070237;23;19912;-83
2023/12/08 11:53:27;;;;;;;;;;;2.20;83.30;;;;;;5066779;23;19916;-83
2023/12/08 11:55:46;;;;;;;;;;;2.20;83.90;;;;;;5067897;23;19960;-83
2023/12/08 11:58:06;;;;;;;;;;;2.20;83.00;;;;;;5066905;23;19912;-84
2023/12/08 12:00:20;;;;;;;;;;;2.20;82.90;;;;;;5069714;23;19931;-82
2023/12/08 12:02:42;;;;;;;;;;;2.10;82.80;;;;;;5069508;23;19915;-83
2023/12/08 12:05:01;;;;;;;;;;;2.20;82.80;;;;;;5067375;23;19915;-82
2023/12/08 12:07:20;;;;;;;;;;;2.10;82.80;;;;;;5067693;23;19988;-82
2023/12/08 12:09:41;;;;;;;;;;;2.10;83.50;;;;;;5067840;23;19916;-83
2023/12/08 12:12:04;;;;;;;;;;;2.10;82.70;;;;;;5069165;23;19915;-83
2023/12/08 12:14:24;;;;;;;;;;;2.10;83.50;;;;;;5065068;23;19920;-81
2023/12/08 12:16:43;;;;;;;;;;;2.20;83.50;;;;;;5067822;23;19938;-83
2023/12/08 12:19:04;;;;;;;;;;;2.20;82.60;;;;;;5067136;23;20026;-83
2023/12/08 12:21:23;;;;;;;;;;;2.10;82.70;;;;;;5068679;23;20448;-83
2023/12/08 12:23:44;;;;;;;;;;;2.10;82.70;;;;;;5067574;23;19947;-82
2023/12/08 12:26:09;;;;;;;;;;;2.10;83.30;;;;;;5068566;23;19979;-83
2023/12/08 12:28:28;;;;;;;;;;;2.10;82.60;;;;;;5068082;23;19931;-84
2023/12/08 12:30:48;;;;;;;;;;;2.10;82.60;;;;;;5068916;23;19912;-83
2023/12/08 12:33:07;;;;;;;;;;;2.10;82.60;;;;;;5066094;23;19916;-84
2023/12/08 12:35:27;;;;;;;;;;;2.10;82.50;;;;;;5046692;23;19912;-82
2023/12/08 12:37:46;;;;;;;;;;;2.10;82.40;;;;;;5066783;23;19915;-82
2023/12/08 12:40:09;;;;;;;;;;;2.20;83.30;;;;;;5068693;23;20117;-83
2023/12/08 12:42:28;;;;;;;;;;;2.10;82.50;;;;;;5068189;23;20430;-81
2023/12/08 12:44:50;;;;;;;;;;;2.10;82.50;;;;;;5071059;23;20337;-82
2023/12/08 12:47:10;;;;;;;;;;;2.10;82.60;;;;;;5067999;23;19985;-83
2023/12/08 12:49:29;;;;;;;;;;;2.10;82.60;;;;;;5069646;23;19923;-83
2023/12/08 12:51:49;;;;;;;;;;;2.10;82.60;;;;;;5071296;23;19940;-82
2023/12/08 12:54:08;;;;;;;;;;;2.10;82.60;;;;;;5070030;23;19931;-83
2023/12/08 12:56:28;;;;;;;;;;;2.10;82.60;;;;;;5072098;23;19911;-84
2023/12/08 12:59:00;;;;;;;;;;;2.10;82.40;;;;;;5072029;23;19912;-83
2023/12/08 13:01:21;;;;;;;;;;;2.10;82.50;;;;;;5073112;23;19916;-84
2023/12/08 13:03:45;;;;;;;;;;;2.10;83.20;;;;;;5068124;23;19916;-83
2023/12/08 13:06:06;;;;;;;;;;;2.10;82.50;;;;;;5069765;23;20241;-83
2023/12/08 13:08:25;;;;;;;;;;;2.10;82.50;;;;;;5068997;23;20367;-83
2023/12/08 13:10:45;;;;;;;;;;;2.10;82.50;;;;;;5070022;23;19932;-83
2023/12/08 13:13:05;;;;;;;;;;;2.10;82.50;;;;;;5070439;23;19920;-84
2023/12/08 13:15:24;;;;;;;;;;;2.10;82.40;;;;;;5069249;23;20146;-84
2023/12/08 13:17:43;;;;;;;;;;;2.10;83.20;;;;;;5070124;23;19955;-84
2023/12/08 13:20:02;;;;;;;;;;;2.10;83.10;;;;;;5068630;23;19911;-83
2023/12/08 13:22:21;;;;;;;;;;;2.10;82.40;;;;;;5069110;23;19912;-82
2023/12/08 13:24:40;;;;;;;;;;;2.10;82.30;;;;;;5077755;23;20148;-84
2023/12/08 13:27:00;;;;;;;;;;;2.10;82.30;;;;;;5092608;23;19963;-84
2023/12/08 13:29:19;;;;;;;;;;;2.10;82.30;;;;;;5094558;23;19931;-83
2023/12/08 13:31:38;;;;;;;;;;;2.10;82.20;;;;;;5113331;23;19915;-83
2023/12/08 13:33:58;;;;;;;;;;;2.10;83.00;;;;;;5088473;23;19918;-84
2023/12/08 13:36:17;;;;;;;;;;;2.10;82.30;;;;;;5084845;23;20380;-82
2023/12/08 13:38:36;;;;;;;;;;;2.10;82.30;;;;;;5090357;23;19916;-84
2023/12/08 13:40:55;;;;;;;;;;;2.10;83.00;;;;;;5089803;23;20407;-81
2023/12/08 13:43:15;;;;;;;;;;;2.10;82.30;;;;;;5088449;23;19956;-82
2023/12/08 13:45:34;;;;;;;;;;;2.10;82.30;;;;;;5110886;23;20461;-82
2023/12/08 13:47:54;;;;;;;;;;;2.10;82.30;;;;;;5110599;23;19977;-82
2023/12/08 13:50:13;;;;;;;;;;;2.10;82.30;;;;;;5090552;23;19915;-82
2023/12/08 13:52:32;;;;;;;;;;;2.10;82.30;;;;;;5091442;23;19924;-83
2023/12/08 13:54:51;;;;;;;;;;;2.10;82.30;;;;;;5110670;23;19916;-82
2023/12/08 13:57:11;;;;;;;;;;;2.10;82.30;;;;;;5087303;23;20406;-83
2023/12/08 13:59:30;;;;;;;;;;;2.10;82.30;;;;;;5108380;23;19966;-83